Time;durP1;ratioP1;P1;durP2;ratioP2;P2;SDS_P1;SDS_P2;PMS_P1;PMS_P2;Temp;Humidity;BMP_temperature;BMP_pressure;BME280_temperature;BME280_humidity;BME280_pressure;Samples;Min_cycle;Max_cycle;Signal;HPM_P1;HPM_P2
2021/07/12 00:02:02;;;;;;;35.55;28.48;;;;;;;;;;5061735;28;39077;-83
2021/07/12 00:04:29;;;;;;;40.33;27.48;;;;;;;;;;5057223;28;36964;-83
2021/07/12 00:06:55;;;;;;;35.33;26.98;;;;;;;;;;5040715;28;38537;-84
2021/07/12 00:09:22;;;;;;;34.63;27.25;;;;;;;;;;5052431;28;38932;-84
2021/07/12 00:11:50;;;;;;;34.10;27.25;;;;;;;;;;5056110;28;39860;-84
2021/07/12 00:14:17;;;;;;;39.33;30.02;;;;;;;;;;5043923;28;39884;-84
2021/07/12 00:16:43;;;;;;;49.95;34.88;;;;;;;;;;5058173;28;37171;-83
2021/07/12 00:19:10;;;;;;;55.75;38.33;;;;;;;;;;5075096;28;40261;-83
2021/07/12 00:21:36;;;;;;;51.30;35.65;;;;;;;;;;5061328;28;39834;-84
2021/07/12 00:24:03;;;;;;;49.17;34.95;;;;;;;;;;5057814;28;39859;-84
2021/07/12 00:26:29;;;;;;;48.60;34.75;;;;;;;;;;5060299;28;36357;-84
2021/07/12 00:28:55;;;;;;;54.17;37.50;;;;;;;;;;5056101;28;37627;-84
2021/07/12 00:31:22;;;;;;;51.78;37.35;;;;;;;;;;5056747;28;41404;-82
2021/07/12 00:33:48;;;;;;;49.63;36.20;;;;;;;;;;5066057;28;39609;-83
2021/07/12 00:36:15;;;;;;;56.90;38.80;;;;;;;;;;5074960;28;36074;-82
2021/07/12 00:38:41;;;;;;;53.20;37.70;;;;;;;;;;5056315;28;39633;-82
2021/07/12 00:41:08;;;;;;;50.97;36.97;;;;;;;;;;5060846;28;38922;-83
2021/07/12 00:43:35;;;;;;;48.60;37.30;;;;;;;;;;5056831;28;38745;-83
2021/07/12 00:46:02;;;;;;;50.55;35.83;;;;;;;;;;5058785;28;37119;-82
2021/07/12 00:48:28;;;;;;;52.63;38.65;;;;;;;;;;5059045;28;38178;-84
2021/07/12 00:50:55;;;;;;;56.22;39.30;;;;;;;;;;5065506;28;37180;-84
2021/07/12 00:53:22;;;;;;;60.17;41.25;;;;;;;;;;5057469;28;37673;-84
2021/07/12 00:55:49;;;;;;;57.90;40.25;;;;;;;;;;5061180;28;40425;-83
2021/07/12 00:58:17;;;;;;;58.42;41.70;;;;;;;;;;5061351;28;38009;-84
2021/07/12 01:00:45;;;;;;;59.83;39.67;;;;;;;;;;5063334;28;39628;-84
2021/07/12 01:03:12;;;;;;;56.53;38.95;;;;;;;;;;5055464;28;39517;-83
2021/07/12 01:05:39;;;;;;;65.07;43.95;;;;;;;;;;5060510;28;37489;-83
2021/07/12 01:08:06;;;;;;;61.75;42.00;;;;;;;;;;5059642;28;37818;-84
2021/07/12 01:10:33;;;;;;;68.20;45.28;;;;;;;;;;5060946;28;39373;-84
2021/07/12 01:13:08;;;;;;;61.50;42.10;;;;;;;;;;5061459;28;39683;-84
2021/07/12 01:15:37;;;;;;;60.75;42.08;;;;;;;;;;5057786;28;47733;-83
2021/07/12 01:18:30;;;;;;;63.88;42.72;;;;;;;;;;5055401;28;39663;-82
2021/07/12 01:21:07;;;;;;;63.42;42.67;;;;;;;;;;5055796;28;40317;-82
2021/07/12 01:23:52;;;;;;;56.28;40.50;;;;;;;;;;5057924;28;49494;-85
2021/07/12 01:26:37;;;;;;;64.72;42.75;;;;;;;;;;5060849;28;36713;-84
2021/07/12 01:29:12;;;;;;;55.88;40.38;;;;;;;;;;5056551;28;37648;-83
2021/07/12 01:31:58;;;;;;;67.28;42.65;;;;;;;;;;5054515;28;37399;-84
2021/07/12 01:34:29;;;;;;;61.10;41.60;;;;;;;;;;5060842;28;38477;-84
2021/07/12 01:36:59;;;;;;;60.00;40.58;;;;;;;;;;5061338;28;37337;-83
2021/07/12 01:39:38;;;;;;;59.92;40.30;;;;;;;;;;5064941;28;42129;-84
2021/07/12 01:42:10;;;;;;;65.90;43.80;;;;;;;;;;5056912;28;39143;-84
2021/07/12 01:44:37;;;;;;;58.47;40.85;;;;;;;;;;5065254;28;38658;-84
2021/07/12 01:47:06;;;;;;;58.45;39.90;;;;;;;;;;5058538;28;36697;-83
2021/07/12 01:49:37;;;;;;;58.88;40.63;;;;;;;;;;5063495;28;39206;-83
2021/07/12 01:52:12;;;;;;;57.40;40.50;;;;;;;;;;5062867;28;39359;-84
2021/07/12 01:54:57;;;;;;;50.67;37.72;;;;;;;;;;5062775;28;38464;-83
2021/07/12 01:57:26;;;;;;;52.65;36.63;;;;;;;;;;5063145;28;39042;-82
2021/07/12 02:00:02;;;;;;;56.25;39.63;;;;;;;;;;5060911;28;42372;-83
2021/07/12 02:02:29;;;;;;;50.45;38.60;;;;;;;;;;5060806;28;39826;-84
2021/07/12 02:04:57;;;;;;;52.38;38.30;;;;;;;;;;5065228;28;38392;-83
2021/07/12 02:07:24;;;;;;;55.20;39.65;;;;;;;;;;5044622;28;37427;-83
2021/07/12 02:09:51;;;;;;;52.58;38.17;;;;;;;;;;5059913;28;40091;-83
2021/07/12 02:12:18;;;;;;;50.72;36.53;;;;;;;;;;5062419;28;39184;-83
2021/07/12 02:14:45;;;;;;;53.35;39.63;;;;;;;;;;5061990;28;39464;-82
2021/07/12 02:17:12;;;;;;;51.33;36.40;;;;;;;;;;5062716;28;37916;-84
2021/07/12 02:19:39;;;;;;;52.75;37.50;;;;;;;;;;5064389;28;38060;-84
2021/07/12 02:22:05;;;;;;;50.58;36.22;;;;;;;;;;5069453;28;38950;-83
2021/07/12 02:24:33;;;;;;;49.85;37.67;;;;;;;;;;5067302;28;37253;-84
2021/07/12 02:27:00;;;;;;;51.17;37.42;;;;;;;;;;5062542;28;37173;-84
2021/07/12 02:29:27;;;;;;;52.00;36.90;;;;;;;;;;5061530;28;38870;-84
2021/07/12 02:31:54;;;;;;;46.45;36.45;;;;;;;;;;5061548;28;38680;-84
2021/07/12 02:34:22;;;;;;;50.17;36.85;;;;;;;;;;5059462;28;41125;-83
2021/07/12 02:36:49;;;;;;;50.17;37.30;;;;;;;;;;5062189;28;38056;-84
2021/07/12 02:39:16;;;;;;;62.42;42.63;;;;;;;;;;5063510;28;41257;-84
2021/07/12 02:41:42;;;;;;;55.20;38.38;;;;;;;;;;5062862;28;40126;-84
2021/07/12 02:44:10;;;;;;;54.75;36.67;;;;;;;;;;5062289;28;39889;-84
2021/07/12 02:46:38;;;;;;;54.28;40.38;;;;;;;;;;5060857;28;38530;-84
2021/07/12 02:49:04;;;;;;;49.85;36.65;;;;;;;;;;5063363;28;38547;-84
2021/07/12 02:51:36;;;;;;;50.42;37.10;;;;;;;;;;5061339;28;39430;-84
2021/07/12 02:54:05;;;;;;;48.58;37.25;;;;;;;;;;5064960;28;37813;-83
2021/07/12 02:56:32;;;;;;;48.97;36.53;;;;;;;;;;5048862;28;38584;-83
2021/07/12 02:58:58;;;;;;;51.30;37.85;;;;;;;;;;5063371;28;40461;-83
2021/07/12 03:01:25;;;;;;;52.17;38.15;;;;;;;;;;5057162;28;39254;-83
2021/07/12 03:03:53;;;;;;;50.58;37.58;;;;;;;;;;5058097;28;38092;-83
2021/07/12 03:06:20;;;;;;;48.13;35.53;;;;;;;;;;5060490;28;36943;-83
2021/07/12 03:08:54;;;;;;;52.50;39.10;;;;;;;;;;5060939;28;40283;-84
2021/07/12 03:11:22;;;;;;;52.80;40.88;;;;;;;;;;5058089;28;39590;-84
2021/07/12 03:13:54;;;;;;;50.40;38.10;;;;;;;;;;5054126;28;37246;-83
2021/07/12 03:16:20;;;;;;;56.38;41.67;;;;;;;;;;5061426;28;37970;-83
2021/07/12 03:18:51;;;;;;;61.22;43.03;;;;;;;;;;5062808;28;38989;-83
2021/07/12 03:21:22;;;;;;;59.42;41.80;;;;;;;;;;5063169;28;39292;-83
2021/07/12 03:23:49;;;;;;;48.97;37.60;;;;;;;;;;5060997;28;37998;-84
2021/07/12 03:26:16;;;;;;;52.88;38.28;;;;;;;;;;5062427;28;38313;-83
2021/07/12 03:28:44;;;;;;;57.03;41.55;;;;;;;;;;5057604;28;40101;-83
2021/07/12 03:31:11;;;;;;;53.05;39.45;;;;;;;;;;5057300;28;38015;-83
2021/07/12 03:33:39;;;;;;;54.10;39.45;;;;;;;;;;5064435;28;38021;-83
2021/07/12 03:36:06;;;;;;;52.88;39.40;;;;;;;;;;5057103;28;36113;-83
2021/07/12 03:38:36;;;;;;;56.28;41.45;;;;;;;;;;5062835;28;38537;-84
2021/07/12 03:41:02;;;;;;;52.10;39.70;;;;;;;;;;5050966;28;38084;-82
2021/07/12 03:43:29;;;;;;;56.33;40.92;;;;;;;;;;5056136;28;41014;-82
2021/07/12 03:45:59;;;;;;;50.95;39.00;;;;;;;;;;5058397;27;37270;-83
2021/07/12 03:48:41;;;;;;;53.17;39.30;;;;;;;;;;5060169;28;39044;-83
2021/07/12 03:51:12;;;;;;;59.63;43.03;;;;;;;;;;5055550;27;39471;-84
2021/07/12 03:53:41;;;;;;;54.30;40.20;;;;;;;;;;5060140;28;37634;-82
2021/07/12 03:56:07;;;;;;;55.15;42.70;;;;;;;;;;5056702;28;37731;-83
2021/07/12 03:58:34;;;;;;;49.25;38.58;;;;;;;;;;5052733;28;36356;-83
2021/07/12 04:01:00;;;;;;;51.60;38.42;;;;;;;;;;5054258;28;38571;-82
2021/07/12 04:03:26;;;;;;;51.42;38.15;;;;;;;;;;5064995;28;49821;-83
2021/07/12 04:05:53;;;;;;;47.80;37.30;;;;;;;;;;5059893;28;38281;-82
2021/07/12 04:08:19;;;;;;;52.90;37.95;;;;;;;;;;5057080;28;37541;-82
2021/07/12 04:10:46;;;;;;;49.78;37.90;;;;;;;;;;5065351;28;37709;-83
2021/07/12 04:13:13;;;;;;;50.38;36.90;;;;;;;;;;5055053;28;39852;-83
2021/07/12 04:15:40;;;;;;;50.60;39.17;;;;;;;;;;5064525;28;36960;-84
2021/07/12 04:18:07;;;;;;;52.75;40.60;;;;;;;;;;5059435;28;39335;-82
2021/07/12 04:20:37;;;;;;;52.90;40.35;;;;;;;;;;5058069;28;40037;-83
2021/07/12 04:23:04;;;;;;;45.50;34.50;;;;;;;;;;5066209;28;38619;-81
2021/07/12 04:25:30;;;;;;;49.85;38.35;;;;;;;;;;5060451;28;37547;-83
2021/07/12 04:27:57;;;;;;;47.78;36.50;;;;;;;;;;5060959;28;39101;-83
2021/07/12 04:30:24;;;;;;;46.80;35.55;;;;;;;;;;5054405;28;40034;-83
2021/07/12 04:32:50;;;;;;;50.50;37.50;;;;;;;;;;5054189;28;37872;-83
2021/07/12 04:35:20;;;;;;;48.40;37.30;;;;;;;;;;5054586;28;36241;-82
2021/07/12 04:37:46;;;;;;;45.58;35.63;;;;;;;;;;5064140;28;39254;-82
2021/07/12 04:40:13;;;;;;;42.80;33.40;;;;;;;;;;5060027;28;40033;-82
2021/07/12 04:42:40;;;;;;;44.58;33.70;;;;;;;;;;5056511;28;37821;-82
2021/07/12 04:45:06;;;;;;;48.08;35.80;;;;;;;;;;5053649;28;37132;-83
2021/07/12 04:47:32;;;;;;;43.53;34.55;;;;;;;;;;5054589;28;42349;-83
2021/07/12 04:49:59;;;;;;;48.58;35.20;;;;;;;;;;5054794;28;37703;-83
2021/07/12 04:52:25;;;;;;;44.90;34.35;;;;;;;;;;5056371;28;39450;-82
2021/07/12 04:54:55;;;;;;;39.47;32.40;;;;;;;;;;5061049;28;37797;-83
2021/07/12 04:57:21;;;;;;;40.95;32.53;;;;;;;;;;5062759;28;38377;-81
2021/07/12 04:59:47;;;;;;;39.88;31.98;;;;;;;;;;5066496;28;37938;-82
2021/07/12 05:02:14;;;;;;;41.28;33.97;;;;;;;;;;5062778;28;37526;-82
2021/07/12 05:04:41;;;;;;;35.53;29.00;;;;;;;;;;5063693;28;35554;-82
2021/07/12 05:07:07;;;;;;;40.53;32.53;;;;;;;;;;5066354;28;39117;-82
2021/07/12 05:09:34;;;;;;;38.97;30.35;;;;;;;;;;5062773;28;38666;-81
2021/07/12 05:12:00;;;;;;;40.35;28.80;;;;;;;;;;5054081;28;38577;-81
2021/07/12 05:14:27;;;;;;;37.58;29.30;;;;;;;;;;5061855;28;47580;-81
2021/07/12 05:16:54;;;;;;;32.17;27.17;;;;;;;;;;5055544;28;39523;-82
2021/07/12 05:19:20;;;;;;;34.75;27.40;;;;;;;;;;5044905;28;40047;-82
2021/07/12 05:21:47;;;;;;;35.85;28.00;;;;;;;;;;5056693;28;38662;-82
2021/07/12 05:24:15;;;;;;;34.03;27.48;;;;;;;;;;5051762;28;38681;-83
2021/07/12 05:26:41;;;;;;;33.90;26.35;;;;;;;;;;5050506;28;41157;-82
2021/07/12 05:29:07;;;;;;;26.58;22.90;;;;;;;;;;5059907;28;39530;-82
2021/07/12 05:31:37;;;;;;;27.90;23.80;;;;;;;;;;5061500;28;38589;-83
2021/07/12 05:34:05;;;;;;;26.77;22.17;;;;;;;;;;5073562;28;40749;-83
2021/07/12 05:36:32;;;;;;;26.33;22.27;;;;;;;;;;5079139;27;40629;-83
2021/07/12 05:38:58;;;;;;;29.83;24.92;;;;;;;;;;5058197;28;39168;-82
2021/07/12 05:41:24;;;;;;;28.35;20.98;;;;;;;;;;5067960;28;37794;-81
2021/07/12 05:43:51;;;;;;;30.75;23.13;;;;;;;;;;5062840;28;38229;-82
2021/07/12 05:46:20;;;;;;;28.02;22.77;;;;;;;;;;5060209;28;39628;-84
2021/07/12 05:48:47;;;;;;;26.48;21.52;;;;;;;;;;5071109;28;38715;-80
2021/07/12 05:51:13;;;;;;;27.70;22.30;;;;;;;;;;5059187;28;36914;-81
2021/07/12 05:53:40;;;;;;;23.17;20.25;;;;;;;;;;5060071;28;37086;-81
2021/07/12 05:56:06;;;;;;;24.52;21.52;;;;;;;;;;5054782;28;41773;-82
2021/07/12 05:58:36;;;;;;;24.65;21.60;;;;;;;;;;5055296;28;37178;-84
2021/07/12 06:01:03;;;;;;;24.80;21.63;;;;;;;;;;5062508;28;37518;-82
2021/07/12 06:03:32;;;;;;;20.73;18.45;;;;;;;;;;5065620;28;38631;-86
2021/07/12 06:05:59;;;;;;;23.05;20.55;;;;;;;;;;5049823;27;40790;-81
2021/07/12 06:08:28;;;;;;;24.25;20.15;;;;;;;;;;5054148;28;39507;-80
2021/07/12 06:10:55;;;;;;;23.45;19.48;;;;;;;;;;5066029;28;39055;-83
2021/07/12 06:13:21;;;;;;;21.58;18.85;;;;;;;;;;5057530;28;38958;-82
2021/07/12 06:15:48;;;;;;;21.30;18.55;;;;;;;;;;5056632;28;38900;-81
2021/07/12 06:18:15;;;;;;;22.73;19.67;;;;;;;;;;5058739;28;38667;-81
2021/07/12 06:20:42;;;;;;;20.15;17.85;;;;;;;;;;5057355;28;38418;-81
2021/07/12 06:23:09;;;;;;;24.10;18.88;;;;;;;;;;5035459;28;38910;-81
2021/07/12 06:25:36;;;;;;;18.60;16.60;;;;;;;;;;5037416;28;39866;-81
2021/07/12 06:28:02;;;;;;;26.35;20.02;;;;;;;;;;5062326;28;38837;-81
2021/07/12 06:30:29;;;;;;;22.83;18.40;;;;;;;;;;5055351;28;38132;-81
2021/07/12 06:32:55;;;;;;;21.10;17.75;;;;;;;;;;5040278;28;36794;-81
2021/07/12 06:35:22;;;;;;;23.40;18.98;;;;;;;;;;5051278;28;39925;-81
2021/07/12 06:37:48;;;;;;;20.05;17.67;;;;;;;;;;5048007;28;38873;-80
2021/07/12 06:40:15;;;;;;;17.95;15.50;;;;;;;;;;5042276;28;37219;-81
2021/07/12 06:42:41;;;;;;;22.13;17.98;;;;;;;;;;5040255;28;37057;-80
2021/07/12 06:45:08;;;;;;;19.80;17.00;;;;;;;;;;5034779;28;38771;-80
2021/07/12 06:47:37;;;;;;;20.15;18.08;;;;;;;;;;5047697;28;37799;-82
2021/07/12 06:50:04;;;;;;;19.08;17.17;;;;;;;;;;5058503;28;39781;-82
2021/07/12 06:52:31;;;;;;;18.52;15.63;;;;;;;;;;5042724;28;47642;-81
2021/07/12 06:54:57;;;;;;;18.13;15.75;;;;;;;;;;5048662;28;40365;-81
2021/07/12 06:57:27;;;;;;;18.45;16.55;;;;;;;;;;5045329;28;40033;-81
2021/07/12 06:59:56;;;;;;;17.38;15.50;;;;;;;;;;5038244;28;40149;-80
2021/07/12 07:02:23;;;;;;;16.95;15.20;;;;;;;;;;5061138;28;38029;-79
2021/07/12 07:04:49;;;;;;;16.45;14.18;;;;;;;;;;5036645;28;36538;-79
2021/07/12 07:07:16;;;;;;;17.85;14.50;;;;;;;;;;5046345;28;39098;-80
2021/07/12 07:09:42;;;;;;;15.00;13.50;;;;;;;;;;5044396;28;39556;-79
2021/07/12 07:12:09;;;;;;;14.30;12.90;;;;;;;;;;5057105;28;37057;-80
2021/07/12 07:14:35;;;;;;;13.90;12.50;;;;;;;;;;5064482;28;40774;-79
2021/07/12 07:17:02;;;;;;;12.80;11.30;;;;;;;;;;5040645;28;37309;-80
2021/07/12 07:19:28;;;;;;;13.23;11.82;;;;;;;;;;5040899;28;40183;-78
2021/07/12 07:21:55;;;;;;;13.93;12.52;;;;;;;;;;5055041;28;37388;-79
2021/07/12 07:24:21;;;;;;;14.18;12.65;;;;;;;;;;5042244;28;41031;-79
2021/07/12 07:26:48;;;;;;;13.20;11.75;;;;;;;;;;5046798;28;39488;-79
2021/07/12 07:29:15;;;;;;;15.48;12.23;;;;;;;;;;5029890;28;38251;-80
2021/07/12 07:31:43;;;;;;;11.60;10.40;;;;;;;;;;5040570;28;37804;-84
2021/07/12 07:34:09;;;;;;;12.43;10.93;;;;;;;;;;5053985;28;39814;-80
2021/07/12 07:36:36;;;;;;;12.43;11.23;;;;;;;;;;5034788;28;39336;-78
2021/07/12 07:39:03;;;;;;;11.57;10.02;;;;;;;;;;5062475;28;39683;-78
2021/07/12 07:41:29;;;;;;;12.88;11.57;;;;;;;;;;5036110;28;38516;-78
2021/07/12 07:43:56;;;;;;;12.27;9.70;;;;;;;;;;5055930;28;38998;-78
2021/07/12 07:46:22;;;;;;;11.80;10.70;;;;;;;;;;5058924;28;38455;-77
2021/07/12 07:48:49;;;;;;;13.32;10.52;;;;;;;;;;5046588;28;38367;-79
2021/07/12 07:51:15;;;;;;;10.40;9.40;;;;;;;;;;5033119;28;36326;-80
2021/07/12 07:53:41;;;;;;;8.27;7.50;;;;;;;;;;5038508;28;40874;-79
2021/07/12 07:56:08;;;;;;;9.07;8.02;;;;;;;;;;5044118;28;39061;-80
2021/07/12 07:58:35;;;;;;;8.23;7.22;;;;;;;;;;5056668;28;37779;-79
2021/07/12 08:01:01;;;;;;;8.30;7.43;;;;;;;;;;5030259;28;38723;-80
2021/07/12 08:03:27;;;;;;;8.95;7.97;;;;;;;;;;5061258;28;49114;-79
2021/07/12 08:05:54;;;;;;;6.22;5.57;;;;;;;;;;5038409;28;38616;-80
2021/07/12 08:08:20;;;;;;;8.50;7.20;;;;;;;;;;5060968;28;38194;-78
2021/07/12 08:10:47;;;;;;;7.97;7.18;;;;;;;;;;5062051;28;37719;-79
2021/07/12 08:13:13;;;;;;;6.85;6.10;;;;;;;;;;5044828;28;40714;-80
2021/07/12 08:15:40;;;;;;;6.90;6.00;;;;;;;;;;5035835;28;39080;-80
2021/07/12 08:18:09;;;;;;;8.05;6.70;;;;;;;;;;5048642;28;37459;-80
2021/07/12 08:20:36;;;;;;;7.90;6.38;;;;;;;;;;5041677;28;37238;-80
2021/07/12 08:23:02;;;;;;;5.85;5.18;;;;;;;;;;5040037;28;39691;-80
2021/07/12 08:25:29;;;;;;;7.57;5.85;;;;;;;;;;5045006;28;37270;-81
2021/07/12 08:27:55;;;;;;;6.32;5.55;;;;;;;;;;5045772;28;40164;-82
2021/07/12 08:30:22;;;;;;;5.93;5.43;;;;;;;;;;5047558;28;36650;-83
2021/07/12 08:32:49;;;;;;;6.38;5.78;;;;;;;;;;5040932;28;37818;-80
2021/07/12 08:35:15;;;;;;;6.07;5.10;;;;;;;;;;5046017;28;36920;-81
2021/07/12 08:37:48;;;;;;;7.35;5.38;;;;;;;;;;5044507;28;39545;-80
2021/07/12 08:40:14;;;;;;;5.18;4.68;;;;;;;;;;5058764;28;37333;-81
2021/07/12 08:42:41;;;;;;;6.40;5.10;;;;;;;;;;5042907;28;38703;-82
2021/07/12 08:45:07;;;;;;;6.38;5.55;;;;;;;;;;5033978;28;39281;-82
2021/07/12 08:47:35;;;;;;;5.50;5.00;;;;;;;;;;5038800;28;37348;-81
2021/07/12 08:50:01;;;;;;;5.53;4.55;;;;;;;;;;5031887;28;37426;-79
2021/07/12 08:52:28;;;;;;;4.55;3.35;;;;;;;;;;5043484;28;38791;-81
2021/07/12 08:54:54;;;;;;;6.30;4.88;;;;;;;;;;5040313;28;37688;-81
2021/07/12 08:57:21;;;;;;;4.75;4.32;;;;;;;;;;5040224;28;37209;-80
2021/07/12 08:59:47;;;;;;;6.68;4.43;;;;;;;;;;5036582;28;37079;-79
2021/07/12 09:02:16;;;;;;;5.00;4.40;;;;;;;;;;5044939;28;40067;-81
2021/07/12 09:04:43;;;;;;;3.97;3.65;;;;;;;;;;5035881;28;38526;-80
2021/07/12 09:07:11;;;;;;;8.48;4.63;;;;;;;;;;5036378;28;40487;-80
2021/07/12 09:09:38;;;;;;;4.00;3.60;;;;;;;;;;5041299;28;36260;-82
2021/07/12 09:12:15;;;;;;;3.78;3.47;;;;;;;;;;5043055;28;39725;-81
2021/07/12 09:14:59;;;;;;;3.83;3.20;;;;;;;;;;5042037;28;37830;-80
2021/07/12 09:17:36;;;;;;;3.28;2.97;;;;;;;;;;5032335;28;41314;-81
2021/07/12 09:20:04;;;;;;;3.17;2.88;;;;;;;;;;5042494;28;36648;-81
2021/07/12 09:22:32;;;;;;;4.68;2.80;;;;;;;;;;5038269;28;47940;-80
2021/07/12 09:25:00;;;;;;;5.53;2.90;;;;;;;;;;5039748;28;40964;-81
2021/07/12 09:27:28;;;;;;;3.33;2.67;;;;;;;;;;5036949;28;38410;-80
2021/07/12 09:29:56;;;;;;;3.35;2.67;;;;;;;;;;5033291;28;35740;-81
2021/07/12 09:32:23;;;;;;;2.83;2.58;;;;;;;;;;5038388;28;37396;-81
2021/07/12 09:34:56;;;;;;;3.63;2.25;;;;;;;;;;5047582;28;40570;-82
2021/07/12 09:37:23;;;;;;;2.55;1.83;;;;;;;;;;5056128;28;38241;-81
2021/07/12 09:39:50;;;;;;;2.85;2.10;;;;;;;;;;5041454;28;37229;-80
2021/07/12 09:42:21;;;;;;;2.22;1.85;;;;;;;;;;5052123;28;38654;-80
2021/07/12 09:44:48;;;;;;;3.80;1.83;;;;;;;;;;5047072;28;38024;-80
2021/07/12 09:47:20;;;;;;;2.33;2.00;;;;;;;;;;5047567;28;38137;-80
2021/07/12 09:49:48;;;;;;;2.40;1.67;;;;;;;;;;5058739;28;36891;-79
2021/07/12 09:52:15;;;;;;;2.25;2.05;;;;;;;;;;5050874;28;40744;-81
2021/07/12 09:54:43;;;;;;;1.95;1.63;;;;;;;;;;5049017;28;38816;-81
2021/07/12 09:57:09;;;;;;;2.65;2.05;;;;;;;;;;5053655;28;37160;-81
2021/07/12 09:59:36;;;;;;;3.53;1.80;;;;;;;;;;5041431;28;38678;-81
2021/07/12 10:02:03;;;;;;;3.60;1.90;;;;;;;;;;5059957;28;38998;-79
2021/07/12 10:04:30;;;;;;;2.38;1.95;;;;;;;;;;5071460;28;39363;-81
2021/07/12 10:06:56;;;;;;;3.15;1.95;;;;;;;;;;5058152;28;38102;-80
2021/07/12 10:09:24;;;;;;;3.38;1.90;;;;;;;;;;5040540;28;38042;-81
2021/07/12 10:11:51;;;;;;;1.88;1.63;;;;;;;;;;5048714;28;40770;-81
2021/07/12 10:14:19;;;;;;;2.60;2.00;;;;;;;;;;5064048;28;38846;-80
2021/07/12 10:16:45;;;;;;;2.40;2.15;;;;;;;;;;5052449;28;39871;-81
2021/07/12 10:19:12;;;;;;;3.25;1.85;;;;;;;;;;5036825;28;37182;-81
2021/07/12 10:21:41;;;;;;;2.13;1.50;;;;;;;;;;5043591;28;39614;-83
2021/07/12 10:24:08;;;;;;;2.03;1.70;;;;;;;;;;5043621;28;39174;-81
2021/07/12 10:26:51;;;;;;;1.70;1.60;;;;;;;;;;5056906;28;38772;-80
2021/07/12 10:29:30;;;;;;;2.05;1.77;;;;;;;;;;5059106;28;37091;-79
2021/07/12 10:31:58;;;;;;;2.90;1.90;;;;;;;;;;5055013;28;36956;-81
2021/07/12 10:34:44;;;;;;;2.28;1.77;;;;;;;;;;5037514;28;39781;-80
2021/07/12 10:37:25;;;;;;;1.60;1.50;;;;;;;;;;5065732;28;39459;-81
2021/07/12 10:40:08;;;;;;;2.92;1.75;;;;;;;;;;5037158;28;37458;-79
2021/07/12 10:42:44;;;;;;;1.77;1.65;;;;;;;;;;5042152;28;47666;-80
2021/07/12 10:45:10;;;;;;;2.75;1.15;;;;;;;;;;5064514;28;39384;-81
2021/07/12 10:47:41;;;;;;;2.20;1.30;;;;;;;;;;5054040;28;39967;-81
2021/07/12 10:50:26;;;;;;;2.30;1.63;;;;;;;;;;5037777;28;37620;-80
2021/07/12 10:52:56;;;;;;;2.70;1.50;;;;;;;;;;5081859;28;39122;-81
2021/07/12 10:55:32;;;;;;;2.60;1.73;;;;;;;;;;5060073;28;39850;-80
2021/07/12 10:58:31;;;;;;;3.47;2.17;;;;;;;;;;5067605;28;37963;-79
2021/07/12 11:00:59;;;;;;;1.75;1.60;;;;;;;;;;4999494;28;47517;-80
2021/07/12 11:03:44;;;;;;;2.80;1.80;;;;;;;;;;5075382;28;37522;-80
2021/07/12 11:06:15;;;;;;;3.97;1.67;;;;;;;;;;5035660;28;41995;-80
2021/07/12 11:08:54;;;;;;;1.77;1.67;;;;;;;;;;5042939;28;39393;-83
2021/07/12 11:11:20;;;;;;;2.53;1.45;;;;;;;;;;5068111;28;35615;-81
2021/07/12 11:13:56;;;;;;;3.25;1.80;;;;;;;;;;5060793;28;41892;-80
2021/07/12 11:16:23;;;;;;;2.30;1.70;;;;;;;;;;5062858;28;39309;-80
2021/07/12 11:18:50;;;;;;;2.05;1.58;;;;;;;;;;5059258;28;37457;-79
2021/07/12 11:21:30;;;;;;;5.22;1.88;;;;;;;;;;5052762;28;36757;-78
2021/07/12 11:23:58;;;;;;;3.50;1.40;;;;;;;;;;5050119;28;20056;-81
2021/07/12 11:26:27;;;;;;;4.53;2.60;;;;;;;;;;5048943;28;39047;-80
2021/07/12 11:28:55;;;;;;;3.05;2.05;;;;;;;;;;5055904;28;38961;-80
2021/07/12 11:31:40;;;;;;;3.45;1.73;;;;;;;;;;5053562;28;36648;-81
2021/07/12 11:34:07;;;;;;;3.17;2.08;;;;;;;;;;5044968;28;39890;-81
2021/07/12 11:36:36;;;;;;;3.17;1.80;;;;;;;;;;5051600;28;38233;-79
2021/07/12 11:39:03;;;;;;;3.38;2.13;;;;;;;;;;5031575;28;38976;-80
2021/07/12 11:41:31;;;;;;;2.03;1.83;;;;;;;;;;5034067;28;35801;-80
2021/07/12 11:44:11;;;;;;;2.80;1.45;;;;;;;;;;5046868;28;39329;-79
2021/07/12 11:46:39;;;;;;;2.03;1.83;;;;;;;;;;5056888;28;48898;-80
2021/07/12 11:49:09;;;;;;;1.95;1.83;;;;;;;;;;5040732;28;39331;-81
2021/07/12 11:51:39;;;;;;;1.83;1.40;;;;;;;;;;5034268;28;35872;-82
2021/07/12 11:54:39;;;;;;;1.63;1.50;;;;;;;;;;5057628;28;39018;-81
2021/07/12 11:57:12;;;;;;;1.90;1.70;;;;;;;;;;5038587;28;39275;-82
2021/07/12 11:59:39;;;;;;;1.90;1.80;;;;;;;;;;5062681;28;38981;-82
2021/07/12 12:02:11;;;;;;;1.30;1.20;;;;;;;;;;5054029;28;40266;-82
2021/07/12 12:04:37;;;;;;;;;;;;;;;;;;5068529;28;39384;-80
2021/07/12 12:07:19;;;;;;;4.60;1.90;;;;;;;;;;5060269;28;39684;-80
2021/07/12 12:10:03;;;;;;;2.38;1.50;;;;;;;;;;5066291;28;39283;-81
2021/07/12 12:12:34;;;;;;;1.50;1.40;;;;;;;;;;5059585;28;49103;-82
2021/07/12 12:15:04;;;;;;;2.20;1.50;;;;;;;;;;5062961;28;41900;-80
2021/07/12 12:17:38;;;;;;;3.03;1.30;;;;;;;;;;5052282;28;49736;-82
2021/07/12 12:20:12;;;;;;;1.83;1.15;;;;;;;;;;5065935;28;39346;-83
2021/07/12 12:22:52;;;;;;;2.35;1.63;;;;;;;;;;5044338;28;50272;-81
2021/07/12 12:25:18;;;;;;;1.48;1.38;;;;;;;;;;5062737;27;38688;-82
2021/07/12 12:27:45;;;;;;;1.30;1.20;;;;;;;;;;5074085;28;38665;-79
2021/07/12 12:30:13;;;;;;;1.10;1.10;;;;;;;;;;5052335;27;38968;-79
2021/07/12 12:32:41;;;;;;;1.10;1.10;;;;;;;;;;5054601;28;37731;-80
2021/07/12 12:35:08;;;;;;;2.42;1.38;;;;;;;;;;5061860;28;39628;-82
2021/07/12 12:37:36;;;;;;;1.60;1.50;;;;;;;;;;5061292;28;38928;-83
2021/07/12 12:40:18;;;;;;;1.20;1.10;;;;;;;;;;5063114;28;38017;-85
2021/07/12 12:42:46;;;;;;;4.07;1.92;;;;;;;;;;5056643;28;47415;-83
2021/07/12 12:45:22;;;;;;;1.00;1.00;;;;;;;;;;5052695;28;40290;-82
2021/07/12 12:47:52;;;;;;;2.35;1.42;;;;;;;;;;5041336;28;38785;-84
2021/07/12 12:50:21;;;;;;;2.38;1.70;;;;;;;;;;5027277;28;38114;-83
2021/07/12 12:53:04;;;;;;;;;;;;;;;;;;;;;
2021/07/12 12:55:34;;;;;;;3.13;2.72;;;;;;;;;;5031992;28;48163;-83
2021/07/12 12:58:08;;;;;;;3.30;2.60;;;;;;;;;;5021707;28;41733;-82
2021/07/12 13:00:34;;;;;;;2.80;2.20;;;;;;;;;;5020497;28;48186;-82
2021/07/12 13:03:01;;;;;;;4.90;2.28;;;;;;;;;;5015371;28;40125;-82
2021/07/12 13:05:32;;;;;;;3.72;2.28;;;;;;;;;;5029168;28;47682;-85
2021/07/12 13:08:04;;;;;;;3.45;2.42;;;;;;;;;;5025711;28;38796;-81
2021/07/12 13:10:35;;;;;;;2.83;2.17;;;;;;;;;;5047989;28;47517;-81
2021/07/12 13:13:10;;;;;;;2.25;2.05;;;;;;;;;;5033258;28;38375;-82
2021/07/12 13:15:40;;;;;;;2.97;2.72;;;;;;;;;;5021002;28;41693;-81
2021/07/12 13:18:11;;;;;;;2.50;2.20;;;;;;;;;;5030234;28;40608;-82
2021/07/12 13:20:45;;;;;;;4.15;2.90;;;;;;;;;;5065242;28;37978;-81
2021/07/12 13:23:12;;;;;;;3.05;2.42;;;;;;;;;;5058452;28;36649;-81
2021/07/12 13:25:40;;;;;;;3.00;2.25;;;;;;;;;;5058857;28;37843;-81
2021/07/12 13:28:07;;;;;;;2.65;2.00;;;;;;;;;;5058345;28;38625;-81
2021/07/12 13:30:43;;;;;;;2.55;2.00;;;;;;;;;;5059132;28;39889;-81
2021/07/12 13:33:11;;;;;;;2.25;2.05;;;;;;;;;;5059335;28;37060;-81
2021/07/12 13:35:38;;;;;;;3.10;2.25;;;;;;;;;;5061754;28;39357;-81
2021/07/12 13:38:08;;;;;;;4.13;2.50;;;;;;;;;;5053129;28;38774;-81
2021/07/12 13:40:44;;;;;;;2.53;2.33;;;;;;;;;;5047891;28;38671;-81
2021/07/12 13:43:11;;;;;;;4.93;2.17;;;;;;;;;;5058503;28;36565;-81
2021/07/12 13:45:39;;;;;;;3.00;2.70;;;;;;;;;;5061367;28;39982;-81
2021/07/12 13:48:05;;;;;;;2.65;2.25;;;;;;;;;;5060535;28;39690;-81
2021/07/12 13:50:32;;;;;;;4.45;2.60;;;;;;;;;;5054867;28;37963;-81
2021/07/12 13:53:00;;;;;;;2.10;1.88;;;;;;;;;;5067433;28;37704;-82
2021/07/12 13:55:30;;;;;;;2.10;1.90;;;;;;;;;;5040559;28;42576;-85
2021/07/12 13:57:57;;;;;;;1.88;1.67;;;;;;;;;;5061291;28;38845;-81
2021/07/12 14:00:25;;;;;;;4.00;2.20;;;;;;;;;;5062027;28;39258;-80
2021/07/12 14:02:52;;;;;;;2.53;2.13;;;;;;;;;;5056294;28;38293;-81
2021/07/12 14:05:18;;;;;;;2.30;2.10;;;;;;;;;;5053897;28;40098;-81
2021/07/12 14:07:45;;;;;;;2.05;1.88;;;;;;;;;;5051019;28;40026;-81
2021/07/12 14:10:13;;;;;;;2.38;2.03;;;;;;;;;;5047565;28;38116;-82
2021/07/12 14:12:41;;;;;;;2.08;1.88;;;;;;;;;;5056024;28;39421;-81
2021/07/12 14:15:09;;;;;;;2.50;2.30;;;;;;;;;;5050076;28;40091;-81
2021/07/12 14:17:35;;;;;;;2.60;2.40;;;;;;;;;;5048087;28;41402;-81
2021/07/12 14:20:02;;;;;;;3.83;3.00;;;;;;;;;;5053313;28;39480;-82
2021/07/12 14:22:28;;;;;;;4.40;2.50;;;;;;;;;;5060861;28;38295;-80
2021/07/12 14:24:55;;;;;;;1.90;1.80;;;;;;;;;;5052046;28;40023;-80
2021/07/12 14:27:21;;;;;;;2.25;1.60;;;;;;;;;;5052763;28;37054;-80
2021/07/12 14:29:47;;;;;;;2.20;2.00;;;;;;;;;;5059579;28;39203;-82
2021/07/12 14:32:14;;;;;;;2.40;1.95;;;;;;;;;;5061115;28;38461;-80
2021/07/12 14:34:44;;;;;;;3.47;2.20;;;;;;;;;;5059554;28;38883;-79
2021/07/12 14:37:10;;;;;;;2.58;2.20;;;;;;;;;;5052817;28;39123;-80
2021/07/12 14:39:37;;;;;;;3.58;3.28;;;;;;;;;;5055004;28;40613;-79
2021/07/12 14:42:04;;;;;;;6.57;5.97;;;;;;;;;;5059012;28;37595;-78